sensor_id;sensor_type;location;lat;lon;timestamp;pressure;altitude;pressure_sealevel;temperature;humidity
80248;BME280;69560;52.206;21.018;2023-08-31T00:01:00;99227.35;;;18.80;67.10
80248;BME280;69560;52.206;21.018;2023-08-31T00:03:31;99230.92;;;18.82;67.17
80248;BME280;69560;52.206;21.018;2023-08-31T00:05:57;99233.31;;;18.83;67.31
80248;BME280;69560;52.206;21.018;2023-08-31T00:08:27;99232.83;;;18.80;67.01
80248;BME280;69560;52.206;21.018;2023-08-31T00:10:58;99228.73;;;18.77;67.04
80248;BME280;69560;52.206;21.018;2023-08-31T00:13:25;99228.30;;;18.78;67.08
80248;BME280;69560;52.206;21.018;2023-08-31T00:15:57;99226.66;;;18.80;67.07
80248;BME280;69560;52.206;21.018;2023-08-31T00:18:24;99229.96;;;18.82;67.02
80248;BME280;69560;52.206;21.018;2023-08-31T00:20:51;99234.45;;;18.85;67.07
80248;BME280;69560;52.206;21.018;2023-08-31T00:23:18;99235.04;;;18.86;67.12
80248;BME280;69560;52.206;21.018;2023-08-31T00:25:47;99235.92;;;18.86;66.97
80248;BME280;69560;52.206;21.018;2023-08-31T00:28:17;99232.12;;;18.85;66.90
80248;BME280;69560;52.206;21.018;2023-08-31T00:30:44;99233.59;;;18.84;66.99
80248;BME280;69560;52.206;21.018;2023-08-31T00:33:12;99233.73;;;18.82;66.93
80248;BME280;69560;52.206;21.018;2023-08-31T00:35:38;99231.06;;;18.80;67.03
80248;BME280;69560;52.206;21.018;2023-08-31T00:38:10;99228.02;;;18.74;66.78
80248;BME280;69560;52.206;21.018;2023-08-31T00:40:40;99228.34;;;18.69;66.84
80248;BME280;69560;52.206;21.018;2023-08-31T00:43:12;99225.04;;;18.66;66.82
80248;BME280;69560;52.206;21.018;2023-08-31T00:45:39;99227.71;;;18.60;66.81
80248;BME280;69560;52.206;21.018;2023-08-31T00:48:06;99234.91;;;18.56;66.87
80248;BME280;69560;52.206;21.018;2023-08-31T00:50:33;99233.59;;;18.54;66.89
80248;BME280;69560;52.206;21.018;2023-08-31T00:53:00;99232.88;;;18.51;66.88
80248;BME280;69560;52.206;21.018;2023-08-31T00:55:27;99232.11;;;18.50;66.70
80248;BME280;69560;52.206;21.018;2023-08-31T00:57:53;99231.03;;;18.51;67.00
80248;BME280;69560;52.206;21.018;2023-08-31T01:00:30;99227.73;;;18.49;67.05
80248;BME280;69560;52.206;21.018;2023-08-31T01:03:09;99230.20;;;18.47;66.83
80248;BME280;69560;52.206;21.018;2023-08-31T01:06:07;99226.23;;;18.45;66.98
80248;BME280;69560;52.206;21.018;2023-08-31T01:08:59;99230.55;;;18.46;67.00
80248;BME280;69560;52.206;21.018;2023-08-31T01:14:11;99234.20;;;18.48;66.99
80248;BME280;69560;52.206;21.018;2023-08-31T01:16:39;99235.29;;;18.48;67.02
80248;BME280;69560;52.206;21.018;2023-08-31T01:19:50;99234.04;;;18.47;66.86
80248;BME280;69560;52.206;21.018;2023-08-31T01:22:31;99238.29;;;18.48;66.97
80248;BME280;69560;52.206;21.018;2023-08-31T01:25:01;99237.25;;;18.50;67.10
80248;BME280;69560;52.206;21.018;2023-08-31T01:27:31;99239.39;;;18.51;67.01
80248;BME280;69560;52.206;21.018;2023-08-31T01:29:58;99238.90;;;18.49;66.85
80248;BME280;69560;52.206;21.018;2023-08-31T01:32:25;99235.31;;;18.47;66.83
80248;BME280;69560;52.206;21.018;2023-08-31T01:34:52;99238.84;;;18.45;66.79
80248;BME280;69560;52.206;21.018;2023-08-31T01:37:26;99239.38;;;18.42;66.82
80248;BME280;69560;52.206;21.018;2023-08-31T01:42:48;99248.06;;;18.45;66.97
80248;BME280;69560;52.206;21.018;2023-08-31T01:45:19;99245.42;;;18.44;66.78
80248;BME280;69560;52.206;21.018;2023-08-31T01:47:46;99242.83;;;18.46;66.95
80248;BME280;69560;52.206;21.018;2023-08-31T01:50:13;99242.72;;;18.44;66.89
80248;BME280;69560;52.206;21.018;2023-08-31T01:52:40;99241.71;;;18.41;66.81
80248;BME280;69560;52.206;21.018;2023-08-31T01:55:07;99242.31;;;18.37;66.82
80248;BME280;69560;52.206;21.018;2023-08-31T01:57:34;99239.42;;;18.35;66.72
80248;BME280;69560;52.206;21.018;2023-08-31T02:00:00;99241.55;;;18.33;66.65
80248;BME280;69560;52.206;21.018;2023-08-31T02:02:27;99239.70;;;18.27;66.67
80248;BME280;69560;52.206;21.018;2023-08-31T02:04:53;99245.09;;;18.21;66.53
80248;BME280;69560;52.206;21.018;2023-08-31T02:07:20;99246.92;;;18.18;66.60
80248;BME280;69560;52.206;21.018;2023-08-31T02:09:46;99244.98;;;18.16;66.70
80248;BME280;69560;52.206;21.018;2023-08-31T02:12:13;99250.73;;;18.14;66.71
80248;BME280;69560;52.206;21.018;2023-08-31T02:14:39;99248.13;;;18.15;66.77
80248;BME280;69560;52.206;21.018;2023-08-31T02:17:06;99248.44;;;18.18;67.07
80248;BME280;69560;52.206;21.018;2023-08-31T02:19:32;99247.53;;;18.16;66.88
80248;BME280;69560;52.206;21.018;2023-08-31T02:21:59;99245.32;;;18.12;66.82
80248;BME280;69560;52.206;21.018;2023-08-31T02:24:25;99253.40;;;18.10;67.03
80248;BME280;69560;52.206;21.018;2023-08-31T02:26:52;99247.77;;;18.07;66.80
80248;BME280;69560;52.206;21.018;2023-08-31T02:29:19;99255.70;;;18.05;66.80
80248;BME280;69560;52.206;21.018;2023-08-31T02:31:45;99258.73;;;18.03;66.85
80248;BME280;69560;52.206;21.018;2023-08-31T02:34:12;99259.09;;;18.03;66.92
80248;BME280;69560;52.206;21.018;2023-08-31T02:36:38;99256.25;;;18.02;66.77
80248;BME280;69560;52.206;21.018;2023-08-31T02:39:05;99253.45;;;17.99;66.91
80248;BME280;69560;52.206;21.018;2023-08-31T02:41:32;99252.23;;;17.97;67.04
80248;BME280;69560;52.206;21.018;2023-08-31T02:43:58;99253.37;;;17.96;67.10
80248;BME280;69560;52.206;21.018;2023-08-31T02:46:25;99251.24;;;17.96;66.98
80248;BME280;69560;52.206;21.018;2023-08-31T02:48:51;99252.38;;;17.97;67.10
80248;BME280;69560;52.206;21.018;2023-08-31T02:51:18;99252.73;;;17.97;67.00
80248;BME280;69560;52.206;21.018;2023-08-31T02:53:45;99259.13;;;17.97;67.29
80248;BME280;69560;52.206;21.018;2023-08-31T02:56:11;99258.95;;;17.95;67.04
80248;BME280;69560;52.206;21.018;2023-08-31T02:58:38;99261.94;;;17.90;67.04
80248;BME280;69560;52.206;21.018;2023-08-31T03:01:12;99260.85;;;17.89;67.22
80248;BME280;69560;52.206;21.018;2023-08-31T03:03:40;99256.98;;;17.90;67.21
80248;BME280;69560;52.206;21.018;2023-08-31T03:06:07;99258.93;;;17.89;67.25
80248;BME280;69560;52.206;21.018;2023-08-31T03:08:38;99263.65;;;17.86;67.17
80248;BME280;69560;52.206;21.018;2023-08-31T03:11:05;99267.80;;;17.84;67.29
80248;BME280;69560;52.206;21.018;2023-08-31T03:13:33;99270.96;;;17.82;67.25
80248;BME280;69560;52.206;21.018;2023-08-31T03:16:00;99275.84;;;17.83;67.57
80248;BME280;69560;52.206;21.018;2023-08-31T03:18:27;99276.05;;;17.84;67.55
80248;BME280;69560;52.206;21.018;2023-08-31T03:20:55;99275.77;;;17.83;67.28
80248;BME280;69560;52.206;21.018;2023-08-31T03:23:22;99280.12;;;17.75;67.30
80248;BME280;69560;52.206;21.018;2023-08-31T03:25:49;99277.91;;;17.71;67.44
80248;BME280;69560;52.206;21.018;2023-08-31T03:28:15;99279.60;;;17.68;67.45
80248;BME280;69560;52.206;21.018;2023-08-31T03:30:41;99278.45;;;17.66;67.68
80248;BME280;69560;52.206;21.018;2023-08-31T03:33:11;99276.67;;;17.66;67.64
80248;BME280;69560;52.206;21.018;2023-08-31T03:35:38;99276.35;;;17.63;67.63
80248;BME280;69560;52.206;21.018;2023-08-31T03:38:05;99274.01;;;17.64;67.92
80248;BME280;69560;52.206;21.018;2023-08-31T03:40:31;99278.11;;;17.63;67.84
80248;BME280;69560;52.206;21.018;2023-08-31T03:42:58;99282.23;;;17.62;67.76
80248;BME280;69560;52.206;21.018;2023-08-31T03:45:25;99285.92;;;17.61;68.08
80248;BME280;69560;52.206;21.018;2023-08-31T03:47:51;99287.94;;;17.61;67.99
80248;BME280;69560;52.206;21.018;2023-08-31T03:50:18;99287.10;;;17.59;67.97
80248;BME280;69560;52.206;21.018;2023-08-31T03:52:45;99294.04;;;17.60;68.09
80248;BME280;69560;52.206;21.018;2023-08-31T03:55:11;99291.51;;;17.63;68.08
80248;BME280;69560;52.206;21.018;2023-08-31T03:57:38;99290.67;;;17.67;68.24
80248;BME280;69560;52.206;21.018;2023-08-31T04:00:05;99294.62;;;17.69;68.12
80248;BME280;69560;52.206;21.018;2023-08-31T04:02:38;99298.35;;;17.71;68.10
80248;BME280;69560;52.206;21.018;2023-08-31T04:05:05;99302.73;;;17.71;68.07
80248;BME280;69560;52.206;21.018;2023-08-31T04:07:34;99298.69;;;17.73;68.22
80248;BME280;69560;52.206;21.018;2023-08-31T04:10:02;99297.45;;;17.78;68.07
80248;BME280;69560;52.206;21.018;2023-08-31T04:12:30;99294.17;;;17.80;68.08
80248;BME280;69560;52.206;21.018;2023-08-31T04:14:57;99291.11;;;17.81;67.95
80248;BME280;69560;52.206;21.018;2023-08-31T04:17:23;99285.66;;;17.78;67.85
80248;BME280;69560;52.206;21.018;2023-08-31T04:19:50;99285.59;;;17.78;67.91
80248;BME280;69560;52.206;21.018;2023-08-31T04:22:17;99289.23;;;17.79;68.10
80248;BME280;69560;52.206;21.018;2023-08-31T04:24:44;99292.17;;;17.80;68.13
80248;BME280;69560;52.206;21.018;2023-08-31T04:27:10;99292.20;;;17.79;67.87
80248;BME280;69560;52.206;21.018;2023-08-31T04:29:37;99294.65;;;17.81;67.99
80248;BME280;69560;52.206;21.018;2023-08-31T04:32:04;99293.36;;;17.84;67.98
80248;BME280;69560;52.206;21.018;2023-08-31T04:34:31;99295.80;;;17.86;68.03
80248;BME280;69560;52.206;21.018;2023-08-31T04:36:58;99298.52;;;17.86;67.92
80248;BME280;69560;52.206;21.018;2023-08-31T04:39:24;99297.92;;;17.84;67.94
80248;BME280;69560;52.206;21.018;2023-08-31T04:41:53;99299.33;;;17.82;67.93
80248;BME280;69560;52.206;21.018;2023-08-31T04:44:20;99300.95;;;17.85;67.92
80248;BME280;69560;52.206;21.018;2023-08-31T04:46:46;99302.36;;;17.89;67.92
80248;BME280;69560;52.206;21.018;2023-08-31T04:49:13;99307.23;;;17.94;67.96
80248;BME280;69560;52.206;21.018;2023-08-31T04:51:40;99308.58;;;17.97;67.82
80248;BME280;69560;52.206;21.018;2023-08-31T04:54:08;99311.11;;;17.99;67.76
80248;BME280;69560;52.206;21.018;2023-08-31T04:56:34;99313.96;;;18.00;67.76
80248;BME280;69560;52.206;21.018;2023-08-31T04:59:01;99314.36;;;18.00;67.61
80248;BME280;69560;52.206;21.018;2023-08-31T05:01:29;99317.55;;;18.01;67.55
80248;BME280;69560;52.206;21.018;2023-08-31T05:03:56;99321.63;;;18.01;67.53
80248;BME280;69560;52.206;21.018;2023-08-31T05:06:22;99328.91;;;18.04;67.61
80248;BME280;69560;52.206;21.018;2023-08-31T05:08:49;99328.56;;;18.09;67.75
80248;BME280;69560;52.206;21.018;2023-08-31T05:11:16;99339.03;;;18.13;67.64
80248;BME280;69560;52.206;21.018;2023-08-31T05:13:42;99341.25;;;18.14;67.52
80248;BME280;69560;52.206;21.018;2023-08-31T05:16:09;99340.74;;;18.18;67.68
80248;BME280;69560;52.206;21.018;2023-08-31T05:18:36;99343.27;;;18.16;67.27
80248;BME280;69560;52.206;21.018;2023-08-31T05:21:03;99341.80;;;18.18;67.33
80248;BME280;69560;52.206;21.018;2023-08-31T05:23:30;99343.22;;;18.22;67.46
80248;BME280;69560;52.206;21.018;2023-08-31T05:25:57;99337.33;;;18.26;67.35
80248;BME280;69560;52.206;21.018;2023-08-31T05:28:23;99341.75;;;18.29;67.26
80248;BME280;69560;52.206;21.018;2023-08-31T05:30:52;99346.00;;;18.32;67.26
80248;BME280;69560;52.206;21.018;2023-08-31T05:33:19;99349.96;;;18.34;67.19
80248;BME280;69560;52.206;21.018;2023-08-31T05:35:46;99353.19;;;18.36;67.13
80248;BME280;69560;52.206;21.018;2023-08-31T05:38:12;99353.86;;;18.35;67.10
80248;BME280;69560;52.206;21.018;2023-08-31T05:40:39;99359.16;;;18.35;66.96
80248;BME280;69560;52.206;21.018;2023-08-31T05:43:05;99359.39;;;18.35;66.96
80248;BME280;69560;52.206;21.018;2023-08-31T05:45:35;99361.79;;;18.39;67.09
80248;BME280;69560;52.206;21.018;2023-08-31T05:48:01;99364.78;;;18.41;66.92
80248;BME280;69560;52.206;21.018;2023-08-31T05:50:30;99369.73;;;18.39;66.98
80248;BME280;69560;52.206;21.018;2023-08-31T05:52:57;99369.83;;;18.38;66.75
80248;BME280;69560;52.206;21.018;2023-08-31T05:55:23;99370.83;;;18.40;66.80
80248;BME280;69560;52.206;21.018;2023-08-31T05:57:50;99375.61;;;18.44;66.96
80248;BME280;69560;52.206;21.018;2023-08-31T06:00:17;99376.95;;;18.51;66.91
80248;BME280;69560;52.206;21.018;2023-08-31T06:02:43;99382.58;;;18.58;66.63
80248;BME280;69560;52.206;21.018;2023-08-31T06:05:13;99391.66;;;18.62;66.38
80248;BME280;69560;52.206;21.018;2023-08-31T06:07:43;99395.30;;;18.65;66.05
80248;BME280;69560;52.206;21.018;2023-08-31T06:10:09;99389.88;;;18.64;65.70
80248;BME280;69560;52.206;21.018;2023-08-31T06:12:37;99395.52;;;18.60;65.18
80248;BME280;69560;52.206;21.018;2023-08-31T06:15:04;99391.58;;;18.57;65.26
80248;BME280;69560;52.206;21.018;2023-08-31T06:17:30;99388.77;;;18.57;65.07
80248;BME280;69560;52.206;21.018;2023-08-31T06:19:57;99391.22;;;18.58;64.95
80248;BME280;69560;52.206;21.018;2023-08-31T06:22:23;99391.98;;;18.60;64.76
80248;BME280;69560;52.206;21.018;2023-08-31T06:24:51;99392.67;;;18.61;64.61
80248;BME280;69560;52.206;21.018;2023-08-31T06:27:18;99396.05;;;18.67;64.63
80248;BME280;69560;52.206;21.018;2023-08-31T06:29:45;99399.40;;;18.73;64.52
80248;BME280;69560;52.206;21.018;2023-08-31T06:32:11;99397.38;;;18.79;64.44
80248;BME280;69560;52.206;21.018;2023-08-31T06:34:38;99395.19;;;18.86;64.21
80248;BME280;69560;52.206;21.018;2023-08-31T06:37:04;99401.27;;;18.92;64.24
80248;BME280;69560;52.206;21.018;2023-08-31T06:39:31;99404.33;;;18.95;64.03
80248;BME280;69560;52.206;21.018;2023-08-31T06:41:59;99407.06;;;18.98;63.78
80248;BME280;69560;52.206;21.018;2023-08-31T06:44:26;99413.01;;;19.01;63.52
80248;BME280;69560;52.206;21.018;2023-08-31T06:46:52;99417.15;;;19.04;63.39
80248;BME280;69560;52.206;21.018;2023-08-31T06:49:19;99418.71;;;19.06;63.35
80248;BME280;69560;52.206;21.018;2023-08-31T06:51:45;99418.71;;;19.09;63.24
80248;BME280;69560;52.206;21.018;2023-08-31T06:54:12;99411.30;;;19.13;63.34
80248;BME280;69560;52.206;21.018;2023-08-31T06:56:39;99405.62;;;19.18;63.38
80248;BME280;69560;52.206;21.018;2023-08-31T06:59:05;99411.27;;;19.22;63.08
80248;BME280;69560;52.206;21.018;2023-08-31T07:01:32;99413.81;;;19.23;62.99
80248;BME280;69560;52.206;21.018;2023-08-31T07:03:59;99418.45;;;19.21;62.87
80248;BME280;69560;52.206;21.018;2023-08-31T07:06:26;99419.96;;;19.24;63.13
80248;BME280;69560;52.206;21.018;2023-08-31T07:08:52;99420.06;;;19.29;62.74
80248;BME280;69560;52.206;21.018;2023-08-31T07:11:19;99417.16;;;19.30;62.82
80248;BME280;69560;52.206;21.018;2023-08-31T07:13:45;99421.89;;;19.33;62.63
80248;BME280;69560;52.206;21.018;2023-08-31T07:16:12;99418.89;;;19.34;62.57
80248;BME280;69560;52.206;21.018;2023-08-31T07:18:38;99423.11;;;19.36;62.86
80248;BME280;69560;52.206;21.018;2023-08-31T07:21:05;99421.20;;;19.38;62.83
80248;BME280;69560;52.206;21.018;2023-08-31T07:23:31;99427.84;;;19.39;62.58
80248;BME280;69560;52.206;21.018;2023-08-31T07:25:58;99428.81;;;19.41;62.73
80248;BME280;69560;52.206;21.018;2023-08-31T07:28:27;99430.69;;;19.43;62.51
80248;BME280;69560;52.206;21.018;2023-08-31T07:31:06;99433.46;;;19.45;62.69
80248;BME280;69560;52.206;21.018;2023-08-31T07:33:33;99436.43;;;19.47;62.62
80248;BME280;69560;52.206;21.018;2023-08-31T07:36:05;99435.91;;;19.52;62.61
80248;BME280;69560;52.206;21.018;2023-08-31T07:38:33;99435.71;;;19.55;62.49
80248;BME280;69560;52.206;21.018;2023-08-31T07:41:00;99438.77;;;19.58;62.35
80248;BME280;69560;52.206;21.018;2023-08-31T07:43:27;99440.86;;;19.58;62.09
80248;BME280;69560;52.206;21.018;2023-08-31T07:45:53;99443.42;;;19.58;62.15
80248;BME280;69560;52.206;21.018;2023-08-31T07:48:20;99444.38;;;19.61;62.08
80248;BME280;69560;52.206;21.018;2023-08-31T07:50:48;99446.73;;;19.63;61.97
80248;BME280;69560;52.206;21.018;2023-08-31T07:53:15;99450.70;;;19.64;61.84
80248;BME280;69560;52.206;21.018;2023-08-31T07:55:53;99451.92;;;19.69;61.78
80248;BME280;69560;52.206;21.018;2023-08-31T07:58:21;99446.92;;;19.75;61.65
80248;BME280;69560;52.206;21.018;2023-08-31T08:00:48;99446.11;;;19.80;61.51
80248;BME280;69560;52.206;21.018;2023-08-31T08:03:14;99450.02;;;19.84;61.42
80248;BME280;69560;52.206;21.018;2023-08-31T08:05:41;99454.81;;;19.95;61.61
80248;BME280;69560;52.206;21.018;2023-08-31T08:08:08;99459.87;;;20.09;61.46
80248;BME280;69560;52.206;21.018;2023-08-31T08:10:34;99459.95;;;20.22;61.18
80248;BME280;69560;52.206;21.018;2023-08-31T08:13:01;99465.38;;;20.33;60.85
80248;BME280;69560;52.206;21.018;2023-08-31T08:15:27;99461.02;;;20.43;60.63
80248;BME280;69560;52.206;21.018;2023-08-31T08:17:54;99461.93;;;20.57;60.63
80248;BME280;69560;52.206;21.018;2023-08-31T08:20:21;99461.91;;;20.67;59.85
80248;BME280;69560;52.206;21.018;2023-08-31T08:22:47;99464.77;;;20.72;59.61
80248;BME280;69560;52.206;21.018;2023-08-31T08:25:15;99459.20;;;20.78;59.30
80248;BME280;69560;52.206;21.018;2023-08-31T08:27:42;99464.63;;;20.82;58.92
80248;BME280;69560;52.206;21.018;2023-08-31T08:30:09;99461.40;;;20.86;58.82
80248;BME280;69560;52.206;21.018;2023-08-31T08:32:36;99464.14;;;20.93;59.06
80248;BME280;69560;52.206;21.018;2023-08-31T08:35:03;99468.21;;;21.01;58.88
80248;BME280;69560;52.206;21.018;2023-08-31T08:37:31;99465.14;;;21.09;58.75
80248;BME280;69560;52.206;21.018;2023-08-31T08:39:59;99468.77;;;21.15;58.73
80248;BME280;69560;52.206;21.018;2023-08-31T08:42:29;99465.80;;;21.20;58.40
80248;BME280;69560;52.206;21.018;2023-08-31T08:44:57;99472.14;;;21.24;58.25
80248;BME280;69560;52.206;21.018;2023-08-31T08:47:25;99474.65;;;21.33;58.02
80248;BME280;69560;52.206;21.018;2023-08-31T08:49:53;99475.14;;;21.46;58.11
80248;BME280;69560;52.206;21.018;2023-08-31T08:52:21;99479.48;;;21.59;57.80
80248;BME280;69560;52.206;21.018;2023-08-31T08:54:49;99480.30;;;21.70;57.38
80248;BME280;69560;52.206;21.018;2023-08-31T08:57:16;99481.41;;;21.76;57.34
80248;BME280;69560;52.206;21.018;2023-08-31T08:59:43;99476.41;;;21.92;57.31
80248;BME280;69560;52.206;21.018;2023-08-31T09:02:10;99480.88;;;22.07;57.25
80248;BME280;69560;52.206;21.018;2023-08-31T09:04:38;99480.91;;;22.14;56.57
80248;BME280;69560;52.206;21.018;2023-08-31T09:07:05;99479.96;;;22.18;56.21
80248;BME280;69560;52.206;21.018;2023-08-31T09:09:32;99481.55;;;22.24;56.10
80248;BME280;69560;52.206;21.018;2023-08-31T09:12:06;99484.92;;;22.29;55.75
80248;BME280;69560;52.206;21.018;2023-08-31T09:14:34;99487.37;;;22.36;55.67
80248;BME280;69560;52.206;21.018;2023-08-31T09:17:00;99488.06;;;22.53;55.60
80248;BME280;69560;52.206;21.018;2023-08-31T09:19:27;99487.09;;;22.65;55.20
80248;BME280;69560;52.206;21.018;2023-08-31T09:21:56;99486.80;;;22.74;54.93
80248;BME280;69560;52.206;21.018;2023-08-31T09:24:24;99488.27;;;22.89;54.93
80248;BME280;69560;52.206;21.018;2023-08-31T09:26:57;99493.35;;;23.08;54.91
80248;BME280;69560;52.206;21.018;2023-08-31T09:29:25;99501.33;;;23.29;54.89
80248;BME280;69560;52.206;21.018;2023-08-31T09:31:51;99498.01;;;23.47;54.76
80248;BME280;69560;52.206;21.018;2023-08-31T09:34:18;99495.88;;;23.65;54.26
80248;BME280;69560;52.206;21.018;2023-08-31T09:36:45;99503.17;;;23.86;54.12
80248;BME280;69560;52.206;21.018;2023-08-31T09:39:14;99503.02;;;24.17;53.90
80248;BME280;69560;52.206;21.018;2023-08-31T09:41:53;99505.77;;;24.78;54.12
80248;BME280;69560;52.206;21.018;2023-08-31T09:44:21;99511.14;;;26.29;54.78
80248;BME280;69560;52.206;21.018;2023-08-31T09:46:48;99515.98;;;28.18;54.02
80248;BME280;69560;52.206;21.018;2023-08-31T09:49:16;99514.58;;;28.28;51.42
80248;BME280;69560;52.206;21.018;2023-08-31T09:51:48;99518.90;;;27.72;48.98
80248;BME280;69560;52.206;21.018;2023-08-31T09:54:16;99516.35;;;27.35;48.39
80248;BME280;69560;52.206;21.018;2023-08-31T09:56:45;99515.55;;;27.37;48.44
80248;BME280;69560;52.206;21.018;2023-08-31T09:59:13;99517.68;;;28.51;48.42
80248;BME280;69560;52.206;21.018;2023-08-31T10:01:40;99530.10;;;29.22;48.30
80248;BME280;69560;52.206;21.018;2023-08-31T10:04:08;99529.95;;;29.80;47.94
80248;BME280;69560;52.206;21.018;2023-08-31T10:06:35;99536.23;;;29.92;46.86
80248;BME280;69560;52.206;21.018;2023-08-31T10:09:05;99535.68;;;29.40;45.86
80248;BME280;69560;52.206;21.018;2023-08-31T10:11:32;99540.23;;;29.19;45.82
80248;BME280;69560;52.206;21.018;2023-08-31T10:14:00;99539.80;;;29.43;45.24
80248;BME280;69560;52.206;21.018;2023-08-31T10:16:27;99533.39;;;29.69;45.61
80248;BME280;69560;52.206;21.018;2023-08-31T10:18:55;99532.08;;;31.33;46.37
80248;BME280;69560;52.206;21.018;2023-08-31T10:21:22;99527.05;;;32.18;45.46
80248;BME280;69560;52.206;21.018;2023-08-31T10:23:50;99522.73;;;32.95;44.83
80248;BME280;69560;52.206;21.018;2023-08-31T10:26:24;99525.32;;;32.81;43.61
80248;BME280;69560;52.206;21.018;2023-08-31T10:28:52;99522.81;;;32.91;42.50
80248;BME280;69560;52.206;21.018;2023-08-31T10:31:20;99520.40;;;33.19;42.43
80248;BME280;69560;52.206;21.018;2023-08-31T10:34:02;99524.71;;;33.09;41.33
80248;BME280;69560;52.206;21.018;2023-08-31T10:36:41;99522.40;;;32.24;40.26
80248;BME280;69560;52.206;21.018;2023-08-31T10:39:12;99524.09;;;31.14;39.52
80248;BME280;69560;52.206;21.018;2023-08-31T10:41:40;99528.48;;;30.23;39.68
80248;BME280;69560;52.206;21.018;2023-08-31T10:46:49;99530.08;;;29.20;40.69
80248;BME280;69560;52.206;21.018;2023-08-31T10:49:18;99531.64;;;28.79;40.80
80248;BME280;69560;52.206;21.018;2023-08-31T10:51:50;99529.77;;;28.40;41.02
80248;BME280;69560;52.206;21.018;2023-08-31T10:56:53;99535.72;;;27.58;41.44
80248;BME280;69560;52.206;21.018;2023-08-31T10:59:25;99540.77;;;27.28;41.74
80248;BME280;69560;52.206;21.018;2023-08-31T11:04:23;99537.41;;;26.59;41.62
80248;BME280;69560;52.206;21.018;2023-08-31T11:07:19;99537.73;;;26.28;41.55
80248;BME280;69560;52.206;21.018;2023-08-31T11:09:46;99538.05;;;25.90;42.01
80248;BME280;69560;52.206;21.018;2023-08-31T11:12:13;99538.33;;;25.61;42.36
80248;BME280;69560;52.206;21.018;2023-08-31T11:14:40;99535.88;;;25.39;42.71
80248;BME280;69560;52.206;21.018;2023-08-31T11:17:07;99536.31;;;25.29;43.01
80248;BME280;69560;52.206;21.018;2023-08-31T11:19:35;99535.61;;;25.16;43.05
80248;BME280;69560;52.206;21.018;2023-08-31T11:22:03;99531.80;;;24.93;43.04
80248;BME280;69560;52.206;21.018;2023-08-31T11:24:33;99536.26;;;24.77;43.19
80248;BME280;69560;52.206;21.018;2023-08-31T11:27:00;99535.52;;;24.67;43.29
80248;BME280;69560;52.206;21.018;2023-08-31T11:29:30;99542.91;;;24.51;43.47
80248;BME280;69560;52.206;21.018;2023-08-31T11:31:57;99540.57;;;24.33;43.55
80248;BME280;69560;52.206;21.018;2023-08-31T11:34:26;99539.77;;;24.22;43.94
80248;BME280;69560;52.206;21.018;2023-08-31T11:36:53;99538.55;;;24.23;44.34
80248;BME280;69560;52.206;21.018;2023-08-31T11:39:19;99536.88;;;24.32;44.64
80248;BME280;69560;52.206;21.018;2023-08-31T11:41:46;99541.09;;;24.42;44.66
80248;BME280;69560;52.206;21.018;2023-08-31T11:44:14;99539.96;;;24.50;44.78
80248;BME280;69560;52.206;21.018;2023-08-31T11:46:46;99539.89;;;24.58;44.66
80248;BME280;69560;52.206;21.018;2023-08-31T11:49:18;99536.39;;;24.77;44.70
80248;BME280;69560;52.206;21.018;2023-08-31T11:51:46;99541.34;;;24.97;44.80
80248;BME280;69560;52.206;21.018;2023-08-31T11:54:13;99547.63;;;25.03;44.51
80248;BME280;69560;52.206;21.018;2023-08-31T11:56:43;99540.58;;;25.02;43.92
80248;BME280;69560;52.206;21.018;2023-08-31T11:59:11;99541.77;;;25.07;44.22
80248;BME280;69560;52.206;21.018;2023-08-31T12:01:39;99533.70;;;25.28;44.32
80248;BME280;69560;52.206;21.018;2023-08-31T12:04:11;99538.34;;;25.53;44.48
80248;BME280;69560;52.206;21.018;2023-08-31T12:06:39;99531.52;;;25.66;44.24
80248;BME280;69560;52.206;21.018;2023-08-31T12:09:08;99530.88;;;25.81;44.05
80248;BME280;69560;52.206;21.018;2023-08-31T12:11:35;99534.57;;;25.94;43.83
80248;BME280;69560;52.206;21.018;2023-08-31T12:14:03;99531.62;;;25.96;43.81
80248;BME280;69560;52.206;21.018;2023-08-31T12:16:36;99529.26;;;25.92;43.59
80248;BME280;69560;52.206;21.018;2023-08-31T12:19:03;99520.86;;;25.96;43.64
80248;BME280;69560;52.206;21.018;2023-08-31T12:21:32;99520.05;;;26.09;43.84
80248;BME280;69560;52.206;21.018;2023-08-31T12:23:59;99523.33;;;26.20;43.51
80248;BME280;69560;52.206;21.018;2023-08-31T12:26:26;99522.45;;;26.22;43.34
80248;BME280;69560;52.206;21.018;2023-08-31T12:28:53;99524.21;;;26.20;43.12
80248;BME280;69560;52.206;21.018;2023-08-31T12:31:21;99518.29;;;26.19;42.76
80248;BME280;69560;52.206;21.018;2023-08-31T12:33:48;99515.93;;;26.10;42.92
80248;BME280;69560;52.206;21.018;2023-08-31T12:36:15;99515.36;;;26.10;43.00
80248;BME280;69560;52.206;21.018;2023-08-31T12:38:41;99516.11;;;26.08;42.97
80248;BME280;69560;52.206;21.018;2023-08-31T12:41:08;99517.53;;;26.10;42.96
80248;BME280;69560;52.206;21.018;2023-08-31T12:43:35;99510.71;;;26.06;42.54
80248;BME280;69560;52.206;21.018;2023-08-31T12:46:02;99505.15;;;26.04;42.62
80248;BME280;69560;52.206;21.018;2023-08-31T12:48:32;99502.19;;;26.10;42.95
80248;BME280;69560;52.206;21.018;2023-08-31T12:50:59;99503.69;;;26.14;42.70
80248;BME280;69560;52.206;21.018;2023-08-31T12:53:26;99506.85;;;26.11;42.38
80248;BME280;69560;52.206;21.018;2023-08-31T12:55:53;99508.02;;;26.03;42.14
80248;BME280;69560;52.206;21.018;2023-08-31T12:58:20;99506.80;;;26.03;42.39
80248;BME280;69560;52.206;21.018;2023-08-31T13:00:48;99503.45;;;26.09;42.42
80248;BME280;69560;52.206;21.018;2023-08-31T13:03:16;99495.98;;;26.07;42.32
80248;BME280;69560;52.206;21.018;2023-08-31T13:05:43;99501.03;;;26.06;42.03
80248;BME280;69560;52.206;21.018;2023-08-31T13:08:10;99502.24;;;26.00;42.13